Terminal Aerodrome Forecast
Issued by NWS

Home | Current Version | Previous Version | Text Only | Print | Product List | Glossary On
Versions: 1 2 3 4 5 6 7 8 9 10 11 12 13 14 15 16 17 18 19 20 21
000
FTUS42 KKEY 190314 AAA
TAFMTH
TAF AMD
KMTH 190314Z 1903/1924 08008KT P6SM VCSH SCT025 BKN200
     FM190600 09007KT P6SM FEW030=

USA.gov is the U.S. government's official web portal to all federal, state and local government web resources and services.